Time;durP1;ratioP1;P1;durP2;ratioP2;P2;SDS_P1;SDS_P2;PMS_P1;PMS_P2;Temp;Humidity;BMP_temperature;BMP_pressure;BME280_temperature;BME280_humidity;BME280_pressure;Samples;Min_cycle;Max_cycle;Signal;HPM_P1;HPM_P2
2023/04/08 00:02:56;;;;;;;3.88;2.45;;;19.40;69.80;;;;;;10491417;28;20539;-23
2023/04/08 00:07:58;;;;;;;4.03;2.38;;;19.40;69.70;;;;;;10497209;28;20083;-23
2023/04/08 00:13:01;;;;;;;6.57;3.47;;;18.90;71.60;;;;;;10493577;28;20092;-23
2023/04/08 00:18:03;;;;;;;6.28;3.60;;;19.20;71.10;;;;;;10496947;28;20048;-23
2023/04/08 00:23:05;;;;;;;5.90;3.75;;;19.30;69.80;;;;;;10497939;28;20135;-22
2023/04/08 00:28:08;;;;;;;6.80;2.80;;;19.30;69.40;;;;;;10497792;28;20119;-22
2023/04/08 00:33:10;;;;;;;5.53;2.53;;;18.90;72.40;;;;;;10496480;28;20067;-23
2023/04/08 00:38:12;;;;;;;5.22;3.05;;;18.80;72.50;;;;;;10493719;28;20059;-23
2023/04/08 00:43:15;;;;;;;6.53;2.72;;;19.10;71.00;;;;;;10490280;28;20051;-22
2023/04/08 00:48:17;;;;;;;7.50;4.07;;;19.20;69.90;;;;;;10491667;28;20571;-23
2023/04/08 00:53:20;;;;;;;6.32;3.92;;;18.90;71.90;;;;;;10497242;28;20052;-23
2023/04/08 00:58:23;;;;;;;;;;;19.10;70.40;;;;;;10494281;28;20055;-24
2023/04/08 01:03:46;;;;;;;5.10;2.97;;;19.20;69.90;;;;;;10495502;28;19948;-23
2023/04/08 01:08:51;;;;;;;7.10;2.92;;;19.10;70.40;;;;;;10481939;28;20900;-22
2023/04/08 01:13:56;;;;;;;4.75;2.95;;;19.30;69.20;;;;;;10485562;28;20090;-23
2023/04/08 01:18:58;;;;;;;12.60;7.32;;;19.30;69.40;;;;;;10492318;28;20057;-21
2023/04/08 01:24:09;;;;;;;6.78;4.20;;;19.20;69.00;;;;;;10485760;28;20076;-24
2023/04/08 01:29:13;;;;;;;7.68;4.57;;;19.20;69.40;;;;;;10489484;28;20048;-25
2023/04/08 01:34:18;;;;;;;9.15;4.85;;;19.20;69.00;;;;;;10479309;28;20390;-25
2023/04/08 01:39:21;;;;;;;8.48;4.65;;;19.20;69.50;;;;;;10496195;28;20060;-23
2023/04/08 01:44:26;;;;;;;9.35;4.95;;;19.20;68.60;;;;;;10490253;28;20051;-22
2023/04/08 01:49:30;;;;;;;8.35;4.60;;;19.20;68.70;;;;;;10489424;28;20139;-23
2023/04/08 01:54:33;;;;;;;7.93;4.95;;;19.20;68.60;;;;;;10486843;28;20048;-22
2023/04/08 01:59:40;;;;;;;6.53;4.10;;;19.20;68.60;;;;;;10506782;28;20079;-22
2023/04/08 02:04:42;;;;;;;7.28;4.03;;;19.20;68.50;;;;;;10494325;28;20127;-23
2023/04/08 02:09:44;;;;;;;6.45;3.95;;;19.20;68.50;;;;;;10490187;28;20068;-22
2023/04/08 02:14:47;;;;;;;5.22;3.40;;;19.20;68.50;;;;;;10492261;28;20068;-23
2023/04/08 02:19:56;;;;;;;7.40;3.95;;;19.20;68.40;;;;;;10496098;28;20112;-23
2023/04/08 02:24:59;;;;;;;6.30;3.95;;;19.20;68.60;;;;;;10485996;28;20486;-23
2023/04/08 02:30:04;;;;;;;8.20;4.13;;;19.10;68.50;;;;;;10493558;28;20812;-22
2023/04/08 02:35:07;;;;;;;8.98;3.30;;;19.20;68.50;;;;;;10491274;28;20481;-22
2023/04/08 02:40:26;;;;;;;6.22;3.60;;;19.10;68.30;;;;;;10500073;28;20110;-23
2023/04/08 02:45:32;;;;;;;7.90;3.85;;;19.10;68.30;;;;;;10496434;28;20090;-23
2023/04/08 02:50:34;;;;;;;6.80;4.30;;;19.20;68.40;;;;;;10506098;28;20041;-24
2023/04/08 02:55:36;;;;;;;7.18;3.80;;;19.10;68.20;;;;;;10502024;28;20161;-23
2023/04/08 03:00:39;;;;;;;;;;;19.10;68.30;;;;;;10497395;28;20072;-24
2023/04/08 03:05:41;;;;;;;9.55;4.25;;;19.10;68.30;;;;;;10506168;28;19928;-23
2023/04/08 03:10:44;;;;;;;5.93;3.78;;;19.10;68.30;;;;;;10499872;28;20072;-22
2023/04/08 03:15:47;;;;;;;7.22;4.38;;;19.10;68.30;;;;;;10502618;28;20050;-22
2023/04/08 03:20:49;;;;;;;7.93;4.18;;;19.10;68.20;;;;;;10499999;28;20071;-23
2023/04/08 03:25:50;;;;;;;5.47;3.88;;;19.00;68.20;;;;;;10485972;28;20051;-23
2023/04/08 03:30:54;;;;;;;7.03;3.88;;;19.10;68.30;;;;;;10494734;28;20048;-23
2023/04/08 03:35:55;;;;;;;7.80;4.22;;;19.00;68.20;;;;;;10491434;28;20055;-23
2023/04/08 03:40:57;;;;;;;5.55;3.72;;;19.00;68.30;;;;;;10498078;28;20114;-23
2023/04/08 03:46:01;;;;;;;5.20;3.45;;;19.00;68.20;;;;;;10505558;28;20052;-23
2023/04/08 03:51:02;;;;;;;6.00;3.55;;;19.00;68.10;;;;;;10494164;28;20090;-23
2023/04/08 03:56:05;;;;;;;4.90;3.30;;;19.00;68.00;;;;;;10493211;28;20226;-22
2023/04/08 04:01:08;;;;;;;5.70;3.15;;;19.00;68.10;;;;;;10500591;28;20504;-22
2023/04/08 04:06:10;;;;;;;4.95;3.20;;;19.00;68.60;;;;;;10491127;28;20053;-22
2023/04/08 04:11:12;;;;;;;5.88;3.50;;;19.00;68.10;;;;;;10492043;28;20163;-22
2023/04/08 04:16:15;;;;;;;5.45;3.40;;;19.00;67.90;;;;;;10494509;28;20507;-23
2023/04/08 04:21:17;;;;;;;6.20;3.45;;;19.00;68.00;;;;;;10494526;28;20134;-22
2023/04/08 04:26:18;;;;;;;6.10;3.42;;;19.00;68.00;;;;;;10493542;28;20040;-23
2023/04/08 04:31:25;;;;;;;6.13;3.85;;;19.00;68.00;;;;;;10498386;28;20141;-22
2023/04/08 04:36:27;;;;;;;4.07;2.95;;;19.00;68.00;;;;;;10497041;28;20059;-24
2023/04/08 04:41:29;;;;;;;4.47;3.15;;;19.00;67.90;;;;;;10497181;28;20045;-23
2023/04/08 04:46:32;;;;;;;5.20;3.53;;;18.90;67.90;;;;;;10493869;28;20163;-24
2023/04/08 04:51:34;;;;;;;5.03;3.38;;;18.90;68.00;;;;;;10492357;28;20123;-23
2023/04/08 04:56:36;;;;;;;5.63;3.20;;;18.90;67.90;;;;;;10492283;28;20496;-23
2023/04/08 05:01:40;;;;;;;5.35;2.85;;;18.90;68.30;;;;;;10499121;28;20076;-22
2023/04/08 05:06:42;;;;;;;3.53;2.65;;;18.80;68.70;;;;;;10493275;28;20680;-22
2023/04/08 05:11:43;;;;;;;4.10;3.00;;;18.80;69.00;;;;;;10496419;28;20535;-23
2023/04/08 05:16:47;;;;;;;6.18;3.42;;;18.80;69.20;;;;;;10491017;28;20162;-23
2023/04/08 05:21:48;;;;;;;4.00;2.58;;;18.80;69.40;;;;;;10498743;28;20150;-23
2023/04/08 05:26:52;;;;;;;2.92;2.50;;;18.80;69.50;;;;;;10492122;28;20071;-23
2023/04/08 05:31:55;;;;;;;3.97;2.88;;;18.80;69.60;;;;;;10498528;28;20048;-23
2023/04/08 05:36:57;;;;;;;3.65;2.60;;;18.80;69.70;;;;;;10496803;28;20048;-23
2023/04/08 05:41:59;;;;;;;4.22;2.75;;;18.90;69.80;;;;;;10494057;28;20048;-23
2023/04/08 05:47:02;;;;;;;4.93;2.80;;;18.90;70.00;;;;;;10484763;28;20071;-22
2023/04/08 05:52:04;;;;;;;4.88;3.38;;;18.90;70.00;;;;;;10500439;28;20135;-22
2023/04/08 05:57:06;;;;;;;5.15;2.83;;;18.90;70.10;;;;;;10496290;28;20507;-22
2023/04/08 06:02:09;;;;;;;6.38;3.47;;;18.90;70.10;;;;;;10489653;28;20136;-22
2023/04/08 06:07:11;;;;;;;5.05;2.85;;;18.90;70.20;;;;;;10498846;28;20135;-22
2023/04/08 07:21:19;;;;;;;3.47;2.20;;;19.10;73.90;;;;;;10517106;27;20144;-23
2023/04/08 07:26:21;;;;;;;2.55;1.95;;;19.50;71.70;;;;;;10531215;28;20052;-23
2023/04/08 07:32:15;;;;;;;3.72;2.47;;;19.60;70.90;;;;;;10527984;28;20135;-22
2023/04/08 07:37:18;;;;;;;4.70;2.40;;;19.70;70.70;;;;;;10521103;28;20448;-22
2023/04/08 07:42:20;;;;;;;4.22;2.30;;;19.80;70.30;;;;;;10521529;28;20045;-22
2023/04/08 07:47:24;;;;;;;3.33;2.45;;;19.90;70.30;;;;;;10522421;28;20044;-23
2023/04/08 07:52:27;;;;;;;5.68;2.70;;;19.90;70.70;;;;;;10520800;28;20462;-23
2023/04/08 07:57:29;;;;;;;5.53;2.97;;;19.50;72.00;;;;;;10515774;28;20388;-23
2023/04/08 08:02:31;;;;;;;21.50;3.80;;;19.30;72.90;;;;;;10521349;28;20056;-22
2023/04/08 08:07:34;;;;;;;6.80;3.30;;;19.20;77.10;;;;;;10524513;28;20141;-23
2023/04/08 08:12:36;;;;;;;8.75;4.75;;;19.30;74.50;;;;;;10524051;28;20836;-22
2023/04/08 08:17:38;;;;;;;4.90;3.33;;;19.50;72.60;;;;;;10535822;28;20109;-22
2023/04/08 08:22:41;;;;;;;6.82;3.03;;;19.70;71.30;;;;;;10565577;28;20087;-21
2023/04/08 08:27:44;;;;;;;5.85;3.35;;;20.00;69.90;;;;;;10567186;28;20750;-22
2023/04/08 08:32:46;;;;;;;17.83;11.48;;;20.20;69.20;;;;;;10546892;28;20139;-23
2023/04/08 08:37:49;;;;;;;27.60;17.52;;;19.10;73.10;;;;;;10538389;28;20565;-22
2023/04/08 08:42:52;;;;;;;7.88;4.57;;;17.60;69.50;;;;;;10535824;28;20082;-22
2023/04/08 08:47:53;;;;;;;8.57;3.78;;;19.30;75.60;;;;;;10540838;28;20044;-22
2023/04/08 08:52:57;;;;;;;6.00;3.50;;;20.00;71.30;;;;;;10534713;28;20098;-22
2023/04/08 08:57:58;;;;;;;11.77;6.80;;;20.00;70.70;;;;;;10531936;28;20097;-23
2023/04/08 09:03:16;;;;;;;6.57;4.15;;;18.00;82.60;;;;;;10535750;28;20477;-23
2023/04/08 09:08:30;;;;;;;22.02;12.65;;;18.80;80.00;;;;;;10534329;28;20469;-22
2023/04/08 09:13:36;;;;;;;16.02;7.05;;;16.00;92.90;;;;;;10533339;28;20073;-23
2023/04/08 09:18:39;;;;;;;19.63;12.18;;;18.40;85.20;;;;;;10520270;28;20058;-23
2023/04/08 09:23:44;;;;;;;27.75;20.00;;;18.40;75.00;;;;;;10519639;28;20056;-22
2023/04/08 09:28:58;;;;;;;14.05;7.68;;;15.50;93.40;;;;;;10535014;28;20052;-23
2023/04/08 09:34:08;;;;;;;10.68;6.70;;;17.80;89.90;;;;;;10534069;28;20048;-22
2023/04/08 09:39:13;;;;;;;12.35;5.65;;;19.10;77.60;;;;;;10531311;28;20717;-22
2023/04/08 09:44:16;;;;;;;8.68;4.75;;;19.50;75.20;;;;;;10538080;28;20476;-22
2023/04/08 09:49:25;;;;;;;12.35;6.38;;;20.00;71.60;;;;;;10533730;28;20052;-22
2023/04/08 09:54:37;;;;;;;6.30;4.05;;;20.20;70.00;;;;;;10531779;28;20071;-24
2023/04/08 09:59:45;;;;;;;15.02;11.02;;;20.30;69.40;;;;;;10533897;28;20146;-22
2023/04/08 10:04:51;;;;;;;4.70;3.28;;;19.80;71.40;;;;;;10534333;28;20146;-22
2023/04/08 10:09:55;;;;;;;7.10;3.42;;;20.40;69.60;;;;;;10531394;28;20123;-22
2023/04/08 10:15:23;;;;;;;10.07;4.55;;;20.50;68.80;;;;;;10531648;28;20077;-21
2023/04/08 10:20:43;;;;;;;6.60;4.82;;;20.10;70.90;;;;;;10528495;28;20048;-23
2023/04/08 10:25:47;;;;;;;14.52;6.47;;;20.20;69.90;;;;;;10531576;28;20052;-23
2023/04/08 10:30:50;;;;;;;4.95;3.72;;;18.50;76.70;;;;;;10528974;28;20051;-23
2023/04/08 10:35:54;;;;;;;6.80;4.28;;;20.20;71.00;;;;;;10526435;28;20084;-23
2023/04/08 10:40:57;;;;;;;9.68;5.60;;;19.90;71.80;;;;;;10529388;28;20096;-23
2023/04/08 10:46:00;;;;;;;5.97;3.70;;;20.20;70.60;;;;;;10530445;28;20047;-23
2023/04/08 10:51:03;;;;;;;10.82;7.25;;;20.80;67.50;;;;;;10527363;28;20052;-22
2023/04/08 10:56:08;;;;;;;8.95;6.25;;;18.30;65.20;;;;;;10529687;28;20040;-23
2023/04/08 11:01:09;;;;;;;11.02;8.68;;;18.30;76.90;;;;;;10537545;28;20069;-22
2023/04/08 11:06:12;;;;;;;15.30;11.45;;;17.60;76.70;;;;;;10535435;28;20043;-23
2023/04/08 11:11:15;;;;;;;7.88;5.20;;;16.80;91.70;;;;;;10528144;28;20055;-23
2023/04/08 11:16:17;;;;;;;8.95;4.72;;;19.00;83.30;;;;;;10534210;28;20077;-22
2023/04/08 11:21:21;;;;;;;19.10;11.98;;;19.10;80.90;;;;;;10536596;28;20079;-23
2023/04/08 11:26:26;;;;;;;9.68;7.70;;;18.10;66.20;;;;;;10533481;28;20136;-23
2023/04/08 11:31:28;;;;;;;12.43;6.75;;;18.50;72.30;;;;;;10531678;28;20058;-22
2023/04/08 11:36:30;;;;;;;11.98;6.85;;;18.40;87.10;;;;;;10522011;28;20048;-25
2023/04/08 11:41:39;;;;;;;12.25;8.90;;;19.70;78.00;;;;;;10530177;28;20109;-23
2023/04/08 11:46:41;;;;;;;5.05;3.60;;;19.10;77.60;;;;;;10531211;28;20105;-23
2023/04/08 11:51:55;;;;;;;11.25;8.15;;;19.10;80.80;;;;;;10524867;28;20041;-22
2023/04/08 11:56:59;;;;;;;13.60;9.52;;;19.00;61.80;;;;;;10532458;28;20052;-23
2023/04/08 12:02:02;;;;;;;15.50;10.32;;;17.70;72.30;;;;;;10527725;28;20060;-23
2023/04/08 12:07:04;;;;;;;11.82;7.68;;;17.20;86.00;;;;;;10535967;28;20427;-22
2023/04/08 12:12:07;;;;;;;17.13;7.57;;;17.20;92.30;;;;;;10548924;28;20051;-24
2023/04/08 12:17:09;;;;;;;10.07;6.88;;;18.30;89.40;;;;;;10546781;28;20052;-23
2023/04/08 12:22:11;;;;;;;7.20;4.07;;;19.20;76.00;;;;;;10540280;28;20520;-23
2023/04/08 12:27:14;;;;;;;17.63;11.75;;;20.40;75.50;;;;;;10533555;28;20548;-23
2023/04/08 12:32:16;;;;;;;5.22;4.07;;;20.10;69.90;;;;;;10547029;28;20547;-21
2023/04/08 12:37:19;;;;;;;11.60;6.15;;;21.00;71.10;;;;;;10536654;28;20040;-22
2023/04/08 12:42:22;;;;;;;9.52;6.93;;;21.00;67.40;;;;;;10524434;28;20095;-24
2023/04/08 12:47:24;;;;;;;6.53;3.45;;;20.60;66.20;;;;;;10550593;28;20166;-22
2023/04/08 12:52:26;;;;;;;6.93;4.05;;;21.00;67.00;;;;;;10539301;28;20494;-24
2023/04/08 12:57:30;;;;;;;5.63;3.80;;;20.40;71.30;;;;;;10536276;28;20044;-23
2023/04/08 13:02:32;;;;;;;10.00;6.78;;;20.80;69.80;;;;;;10532125;28;20052;-22
2023/04/08 13:07:34;;;;;;;9.85;7.95;;;20.80;63.40;;;;;;10537928;28;20048;-24
2023/04/08 13:12:39;;;;;;;5.85;4.60;;;19.20;65.70;;;;;;10529213;28;20135;-26
2023/04/08 13:17:41;;;;;;;6.88;5.40;;;20.30;67.90;;;;;;10533209;28;20515;-24
2023/04/08 13:22:42;;;;;;;5.95;4.70;;;21.20;64.40;;;;;;10528536;28;20536;-23
2023/04/08 13:27:46;;;;;;;4.18;3.58;;;21.50;64.30;;;;;;10534178;28;20526;-22
2023/04/08 13:32:47;;;;;;;7.22;3.40;;;21.90;62.90;;;;;;10533310;28;20207;-23
2023/04/08 13:37:49;;;;;;;7.00;3.55;;;21.70;63.50;;;;;;10533384;28;20076;-24
2023/04/08 13:42:53;;;;;;;5.53;3.17;;;21.90;61.70;;;;;;10537147;28;20055;-22
2023/04/08 13:47:55;;;;;;;8.23;3.95;;;22.00;59.10;;;;;;10531568;28;20184;-23
2023/04/08 13:52:57;;;;;;;4.57;2.85;;;22.10;59.90;;;;;;10532595;28;20815;-23
2023/04/08 13:58:00;;;;;;;4.93;2.95;;;22.30;61.20;;;;;;10542156;28;20126;-23
2023/04/08 14:03:02;;;;;;;3.95;2.85;;;22.30;61.40;;;;;;10535130;28;20102;-21
2023/04/08 14:08:04;;;;;;;7.60;3.38;;;22.50;59.70;;;;;;10531008;28;20052;-23
2023/04/08 14:13:07;;;;;;;6.05;3.65;;;22.50;60.40;;;;;;10532873;28;20105;-23
2023/04/08 14:18:11;;;;;;;5.63;3.03;;;22.50;61.40;;;;;;10531230;28;20568;-22
2023/04/08 14:23:13;;;;;;;3.92;2.83;;;22.60;59.70;;;;;;10528594;28;20048;-22
2023/04/08 14:28:16;;;;;;;4.35;2.58;;;22.80;60.20;;;;;;10540541;28;20071;-23
2023/04/08 14:33:19;;;;;;;4.03;3.30;;;23.10;60.90;;;;;;10536286;28;20119;-22
2023/04/08 14:38:20;;;;;;;9.77;5.63;;;22.90;60.00;;;;;;10535004;28;20134;-23
2023/04/08 14:43:24;;;;;;;4.90;3.10;;;23.00;62.20;;;;;;10529006;28;20442;-24
2023/04/08 14:48:29;;;;;;;4.20;2.65;;;23.20;61.10;;;;;;10533060;28;20059;-23
2023/04/08 14:53:31;;;;;;;5.43;2.90;;;23.40;62.60;;;;;;10535347;28;20058;-23
2023/04/08 14:58:34;;;;;;;5.85;3.30;;;23.50;61.00;;;;;;10531815;28;20055;-24
2023/04/08 15:03:36;;;;;;;3.30;2.60;;;23.50;63.60;;;;;;10530738;28;20503;-22
2023/04/08 15:08:38;;;;;;;5.55;3.83;;;23.80;63.20;;;;;;10541444;28;20381;-22
2023/04/08 15:13:41;;;;;;;5.07;3.45;;;23.90;61.90;;;;;;10528168;28;20512;-23
2023/04/08 15:18:43;;;;;;;5.13;3.55;;;24.00;60.00;;;;;;10534760;28;20484;-23
2023/04/08 15:23:45;;;;;;;;;;;24.10;61.90;;;;;;10530403;28;20180;-24
2023/04/08 15:28:48;;;;;;;19.83;7.53;;;24.30;62.50;;;;;;10530203;28;20701;-23
2023/04/08 15:33:50;;;;;;;8.10;2.85;;;24.10;59.20;;;;;;10527010;28;20518;-21
2023/04/08 15:38:52;;;;;;;8.98;2.70;;;24.40;60.00;;;;;;10529990;28;20056;-23
2023/04/08 15:43:55;;;;;;;6.30;3.25;;;24.60;57.50;;;;;;10533691;28;20040;-22
2023/04/08 15:48:57;;;;;;;7.18;3.95;;;24.70;61.90;;;;;;10545448;28;20043;-23
2023/04/08 15:53:59;;;;;;;;;;;24.80;60.10;;;;;;10527546;28;20079;-23
2023/04/08 15:59:02;;;;;;;3.80;2.97;;;24.90;58.00;;;;;;10532694;28;19963;-23
2023/04/08 16:04:04;;;;;;;12.82;7.05;;;24.80;64.70;;;;;;10542364;28;20499;-23
2023/04/08 16:09:06;;;;;;;4.75;3.10;;;24.80;60.10;;;;;;10537071;28;20043;-24
2023/04/08 16:14:10;;;;;;;;;;;24.70;57.20;;;;;;10536801;28;20497;-24
2023/04/08 16:19:12;;;;;;;7.43;2.70;;;25.00;58.20;;;;;;10531986;28;19993;-22
2023/04/08 16:24:14;;;;;;;3.75;2.60;;;24.90;58.80;;;;;;10527434;28;20063;-23
2023/04/08 16:29:17;;;;;;;3.90;2.70;;;25.00;57.70;;;;;;10534036;28;20076;-23
2023/04/08 16:34:19;;;;;;;5.75;2.67;;;25.10;55.10;;;;;;10529531;28;20140;-24
2023/04/08 16:39:21;;;;;;;;;;;25.20;56.90;;;;;;10534760;28;20159;-22
2023/04/08 16:44:24;;;;;;;4.53;2.88;;;25.30;63.10;;;;;;10540271;28;19919;-22
2023/04/08 16:49:26;;;;;;;5.55;2.45;;;25.30;55.70;;;;;;10528848;28;20137;-22
2023/04/08 16:54:45;;;;;;;;;;;25.30;55.70;;;;;;10532402;28;20063;-23
2023/04/08 17:05:52;;;;;;;4.70;2.53;;;25.30;58.00;;;;;;10528501;28;20389;-21
2023/04/08 17:10:54;;;;;;;7.13;2.47;;;25.40;58.40;;;;;;10524540;28;20657;-22
2023/04/08 17:15:57;;;;;;;;;;;25.30;57.10;;;;;;10546029;28;20136;-22
2023/04/08 17:20:58;;;;;;;5.32;2.67;;;25.30;56.90;;;;;;10537778;28;19928;-23
2023/04/08 17:26:04;;;;;;;;;;;25.30;57.70;;;;;;10531161;28;20040;-23
2023/04/08 17:31:08;;;;;;;4.18;2.75;;;25.30;57.20;;;;;;10538312;28;20026;-22
2023/04/08 17:36:10;;;;;;;5.00;2.40;;;25.10;57.80;;;;;;10534955;28;20072;-23
2023/04/08 17:41:13;;;;;;;3.92;2.53;;;25.00;57.80;;;;;;10532114;28;20104;-22
2023/04/08 17:46:16;;;;;;;4.38;2.60;;;25.00;57.30;;;;;;10535220;28;20097;-23
2023/04/08 17:51:18;;;;;;;5.63;2.22;;;24.90;57.10;;;;;;10536204;28;20044;-23
2023/04/08 17:56:20;;;;;;;3.88;2.33;;;24.80;57.60;;;;;;10523339;28;20135;-23
2023/04/08 18:01:23;;;;;;;3.25;1.95;;;24.70;56.60;;;;;;10531185;28;20091;-23
2023/04/08 18:06:25;;;;;;;3.22;2.45;;;24.60;56.60;;;;;;10538237;28;20106;-23
2023/04/08 18:11:27;;;;;;;2.30;1.73;;;24.60;55.50;;;;;;10534019;28;20050;-22
2023/04/08 18:16:30;;;;;;;;;;;24.50;55.50;;;;;;10534075;28;20071;-23
2023/04/08 18:21:32;;;;;;;2.90;2.25;;;24.50;55.80;;;;;;10540924;28;19923;-21
2023/04/08 18:26:34;;;;;;;;;;;24.40;55.90;;;;;;10538737;28;20420;-22
2023/04/08 18:31:37;;;;;;;5.35;2.05;;;24.30;55.60;;;;;;10534866;28;19926;-24
2023/04/08 18:36:39;;;;;;;2.67;2.00;;;24.20;56.10;;;;;;10531789;28;20147;-24
2023/04/08 18:41:41;;;;;;;3.33;2.13;;;24.10;55.20;;;;;;10536529;28;20051;-23
2023/04/08 18:46:45;;;;;;;;;;;24.10;55.10;;;;;;10532946;28;20086;-22
2023/04/08 18:51:47;;;;;;;3.50;2.33;;;24.00;54.80;;;;;;10532643;28;19930;-24
2023/04/08 18:56:49;;;;;;;;;;;23.90;55.40;;;;;;10528850;28;20044;-21
2023/04/08 19:01:52;;;;;;;;;;;23.90;55.20;;;;;;10529739;28;19920;-24
2023/04/08 19:06:55;;;;;;;3.92;2.67;;;23.90;55.20;;;;;;10521914;28;20014;-23
2023/04/08 19:11:57;;;;;;;6.05;3.03;;;23.90;55.50;;;;;;10531796;28;20052;-23
2023/04/08 19:17:00;;;;;;;5.32;3.33;;;23.80;55.80;;;;;;10535074;28;20150;-23
2023/04/08 19:22:04;;;;;;;6.07;3.25;;;23.70;55.80;;;;;;10528639;28;20052;-23
2023/04/08 19:27:06;;;;;;;10.88;3.40;;;23.70;56.20;;;;;;10521971;28;20040;-22
2023/04/08 19:32:09;;;;;;;;;;;23.70;56.20;;;;;;10532110;28;20476;-23
2023/04/08 19:37:11;;;;;;;7.30;4.03;;;23.60;56.20;;;;;;10529802;28;20030;-23
2023/04/08 19:42:12;;;;;;;;;;;23.60;56.40;;;;;;10524921;28;20148;-23
2023/04/08 19:47:16;;;;;;;6.80;3.60;;;23.50;56.40;;;;;;10525056;28;20228;-23
2023/04/08 19:52:19;;;;;;;7.22;4.28;;;23.50;56.50;;;;;;10517199;28;20044;-23
2023/04/08 19:57:21;;;;;;;9.75;4.47;;;23.50;56.80;;;;;;10529310;28;20135;-23
2023/04/08 20:02:24;;;;;;;;;;;23.40;56.90;;;;;;10530438;28;20150;-24
2023/04/08 20:07:26;;;;;;;8.27;4.20;;;23.40;57.00;;;;;;10525938;28;19969;-23
2023/04/08 20:12:29;;;;;;;9.90;4.07;;;23.40;57.10;;;;;;10529975;28;20127;-25
2023/04/08 20:17:32;;;;;;;10.82;5.20;;;23.30;57.20;;;;;;10528092;28;20052;-22
2023/04/08 20:22:34;;;;;;;10.38;5.00;;;23.30;57.40;;;;;;10528212;28;20140;-23
2023/04/08 20:27:36;;;;;;;8.50;4.60;;;23.20;58.00;;;;;;10538062;28;20044;-24
2023/04/08 20:32:39;;;;;;;10.98;4.82;;;23.20;57.90;;;;;;10545146;28;20133;-23
2023/04/08 20:37:41;;;;;;;9.55;5.50;;;23.20;57.90;;;;;;10531781;28;20063;-23
2023/04/08 20:42:43;;;;;;;;;;;23.10;57.90;;;;;;10543644;28;20121;-22
2023/04/08 20:47:46;;;;;;;8.63;4.23;;;23.10;58.10;;;;;;10535792;28;19966;-21
2023/04/08 20:52:48;;;;;;;9.10;4.60;;;23.10;58.30;;;;;;10535929;28;20490;-24
2023/04/08 20:57:50;;;;;;;9.85;3.65;;;23.00;58.20;;;;;;10535106;28;20132;-23
2023/04/08 21:02:53;;;;;;;12.60;4.40;;;23.00;58.60;;;;;;10543851;28;20048;-24
2023/04/08 21:07:55;;;;;;;10.15;4.95;;;22.90;58.70;;;;;;10531818;28;20503;-23
2023/04/08 21:12:57;;;;;;;;;;;22.90;58.90;;;;;;10533730;28;20079;-22
2023/04/08 21:18:00;;;;;;;12.00;6.40;;;22.80;58.90;;;;;;10535867;28;19966;-22
2023/04/08 21:23:02;;;;;;;11.85;6.05;;;22.80;59.00;;;;;;10534468;28;20121;-23
2023/04/08 21:28:03;;;;;;;;;;;22.70;59.10;;;;;;10542031;28;20097;-23
2023/04/08 21:33:07;;;;;;;11.50;6.37;;;22.70;59.20;;;;;;10534573;28;19957;-24
2023/04/08 21:38:09;;;;;;;13.32;7.47;;;22.60;59.20;;;;;;10533578;28;20504;-23
2023/04/08 21:43:11;;;;;;;11.48;7.28;;;22.60;59.40;;;;;;10534846;28;20063;-23
2023/04/08 21:48:14;;;;;;;15.43;8.05;;;22.50;59.60;;;;;;10508557;28;20135;-24
2023/04/08 21:53:16;;;;;;;15.70;8.25;;;22.40;60.00;;;;;;10535637;28;20040;-24
2023/04/08 21:58:18;;;;;;;;;;;22.40;60.00;;;;;;10532239;28;20044;-22
2023/04/08 22:03:21;;;;;;;14.17;8.43;;;22.30;60.10;;;;;;10541397;28;19954;-23
2023/04/08 22:08:23;;;;;;;15.43;9.23;;;22.30;60.10;;;;;;10529572;28;20143;-23
2023/04/08 22:13:26;;;;;;;14.15;9.05;;;22.30;60.30;;;;;;10531328;28;20079;-23
2023/04/08 22:18:29;;;;;;;14.45;8.73;;;22.20;60.30;;;;;;10529166;28;20143;-20
2023/04/08 22:23:31;;;;;;;18.13;10.68;;;22.20;60.50;;;;;;10537940;28;20052;-23
2023/04/08 22:28:33;;;;;;;18.10;10.63;;;22.10;60.50;;;;;;10534290;28;20476;-23
2023/04/08 22:33:36;;;;;;;17.50;10.40;;;22.10;60.60;;;;;;10536126;28;20104;-23
2023/04/08 22:38:38;;;;;;;15.68;8.60;;;22.00;60.80;;;;;;10532096;28;20549;-23
2023/04/08 22:43:40;;;;;;;20.00;11.77;;;21.90;60.80;;;;;;10529274;28;20183;-23
2023/04/08 22:48:43;;;;;;;18.73;11.32;;;21.90;61.00;;;;;;10521857;28;20496;-23
2023/04/08 22:53:45;;;;;;;20.00;11.50;;;21.90;61.00;;;;;;10523775;28;20079;-23
2023/04/08 22:58:47;;;;;;;;;;;21.80;61.00;;;;;;10529109;28;20482;-21
2023/04/08 23:03:50;;;;;;;19.80;11.60;;;21.80;61.30;;;;;;10531207;28;20336;-22
2023/04/08 23:08:52;;;;;;;19.40;10.98;;;21.70;61.30;;;;;;10526741;28;20117;-24
2023/04/08 23:13:54;;;;;;;22.58;12.10;;;21.70;61.40;;;;;;10522693;28;20406;-23
2023/04/08 23:18:57;;;;;;;20.20;12.27;;;21.60;61.30;;;;;;10525525;28;20128;-22
2023/04/08 23:23:59;;;;;;;22.08;11.90;;;21.60;61.40;;;;;;10530724;28;20101;-23
2023/04/08 23:29:00;;;;;;;19.33;11.73;;;21.60;61.40;;;;;;10541651;28;20122;-22
2023/04/08 23:34:03;;;;;;;19.13;11.43;;;21.50;61.50;;;;;;10531732;28;20135;-22
2023/04/08 23:39:05;;;;;;;18.27;11.00;;;21.50;61.60;;;;;;10528968;28;20462;-22
2023/04/08 23:44:07;;;;;;;16.17;9.80;;;21.40;61.80;;;;;;10526281;28;20138;-23
2023/04/08 23:49:10;;;;;;;17.77;10.48;;;21.40;61.90;;;;;;10530048;28;20167;-23
2023/04/08 23:54:12;;;;;;;16.88;10.77;;;21.40;61.80;;;;;;10529388;28;20067;-22
2023/04/08 23:59:14;;;;;;;15.30;9.90;;;21.30;62.00;;;;;;10530435;28;20150;-22
